createdAt,value
2023-09-14T00:02:07.113Z,1.00
2023-09-14T00:05:10.986Z,1.00
2023-09-14T00:08:13.843Z,1.10
2023-09-14T00:11:16.453Z,1.20
2023-09-14T00:14:22.668Z,1.20
2023-09-14T00:17:25.330Z,1.00
2023-09-14T00:20:35.466Z,1.00
2023-09-14T00:23:38.234Z,1.10
2023-09-14T00:26:40.884Z,1.02
2023-09-14T00:29:43.645Z,1.30
2023-09-14T00:32:48.710Z,1.10
2023-09-14T00:35:51.495Z,1.10
2023-09-14T00:38:54.090Z,1.00
2023-09-14T00:41:56.615Z,1.00
2023-09-14T00:45:02.308Z,1.27
2023-09-14T00:48:05.187Z,1.10
2023-09-14T00:51:08.104Z,1.20
2023-09-14T00:54:12.068Z,1.45
2023-09-14T00:57:18.597Z,1.15
2023-09-14T01:00:21.677Z,1.50
2023-09-14T01:03:25.904Z,1.40
2023-09-14T01:06:30.587Z,1.30
2023-09-14T01:09:34.265Z,1.65
2023-09-14T01:12:37.331Z,1.62
2023-09-14T01:15:43.258Z,1.60
2023-09-14T01:19:11.785Z,1.33
2023-09-14T01:22:17.283Z,1.15
2023-09-14T01:25:47.346Z,1.05
2023-09-14T01:28:50.319Z,1.85
2023-09-14T01:31:53.151Z,1.57
2023-09-14T01:34:56.069Z,1.23
2023-09-14T01:38:04.935Z,1.75
2023-09-14T01:41:08.305Z,1.30
2023-09-14T01:44:14.252Z,1.45
2023-09-14T01:47:18.133Z,1.50
2023-09-14T01:50:24.065Z,2.45
2023-09-14T01:53:29.501Z,1.20
2023-09-14T01:56:32.149Z,1.60
2023-09-14T01:59:34.736Z,1.60
2023-09-14T02:02:37.520Z,1.97
2023-09-14T02:05:41.448Z,1.42
2023-09-14T02:08:44.580Z,1.42
2023-09-14T02:11:47.604Z,1.33
2023-09-14T02:14:50.319Z,1.00
2023-09-14T02:17:55.913Z,1.30
2023-09-14T02:20:58.599Z,1.40
2023-09-14T02:24:01.849Z,1.33
2023-09-14T02:27:04.624Z,1.12
2023-09-14T02:30:08.171Z,1.23
2023-09-14T02:33:11.056Z,1.30
2023-09-14T02:36:13.782Z,1.48
2023-09-14T02:39:16.448Z,1.33
2023-09-14T02:42:19.120Z,1.60
2023-09-14T02:45:21.757Z,0.93
2023-09-14T02:48:24.512Z,1.23
2023-09-14T02:51:27.129Z,1.10
2023-09-14T02:54:29.732Z,1.00
2023-09-14T02:57:32.416Z,1.30
2023-09-14T03:00:41.094Z,1.10
2023-09-14T03:03:44.005Z,1.00
2023-09-14T03:06:46.738Z,1.40
2023-09-14T03:09:49.542Z,1.40
2023-09-14T03:12:52.390Z,1.58
2023-09-14T03:15:59.582Z,1.80
2023-09-14T03:19:02.309Z,2.20
2023-09-14T03:22:08.380Z,2.17
2023-09-14T03:25:11.170Z,1.67
2023-09-14T03:28:13.916Z,1.62
2023-09-14T03:31:16.771Z,1.60
2023-09-14T03:34:20.264Z,1.80
2023-09-14T03:37:25.862Z,1.73
2023-09-14T03:40:28.617Z,1.85
2023-09-14T03:43:31.308Z,2.28
2023-09-14T03:46:34.215Z,2.05
2023-09-14T03:49:37.027Z,1.60
2023-09-14T03:52:39.750Z,1.80
2023-09-14T03:55:43.269Z,1.05
2023-09-14T03:58:46.200Z,1.10
2023-09-14T04:01:49.379Z,1.20
2023-09-14T04:04:52.101Z,1.07
2023-09-14T04:07:55.715Z,1.17
2023-09-14T04:11:01.063Z,1.20
2023-09-14T04:14:03.976Z,1.25
2023-09-14T04:17:06.688Z,1.80
2023-09-14T04:20:12.181Z,1.83
2023-09-14T04:23:17.873Z,2.45
2023-09-14T04:26:21.020Z,1.45
2023-09-14T04:29:23.718Z,2.50
2023-09-14T04:32:26.632Z,1.77
2023-09-14T04:35:29.322Z,1.60
2023-09-14T04:38:33.901Z,1.58
2023-09-14T04:41:36.602Z,1.92
2023-09-14T04:44:39.321Z,2.05
2023-09-14T04:47:42.054Z,1.85
2023-09-14T04:50:45.006Z,1.27
2023-09-14T04:53:47.716Z,1.25
2023-09-14T04:56:50.623Z,1.20
2023-09-14T04:59:53.235Z,1.75
2023-09-14T05:02:55.859Z,1.08
2023-09-14T05:05:59.498Z,1.70
2023-09-14T05:09:02.219Z,1.20
2023-09-14T05:12:06.177Z,1.10
2023-09-14T05:15:09.507Z,1.02
2023-09-14T05:18:12.240Z,1.30
2023-09-14T05:21:15.046Z,1.50
2023-09-14T05:24:18.918Z,1.23
2023-09-14T05:27:21.737Z,1.30
2023-09-14T05:30:26.284Z,1.40
2023-09-14T05:33:29.097Z,1.20
2023-09-14T05:36:31.810Z,1.17
2023-09-14T05:39:34.534Z,1.80
2023-09-14T05:42:38.722Z,1.37
2023-09-14T05:45:42.969Z,1.20
2023-09-14T05:48:45.862Z,1.55
2023-09-14T05:51:49.584Z,1.77
2023-09-14T05:54:52.412Z,1.83
2023-09-14T05:57:55.711Z,1.83
2023-09-14T06:01:01.605Z,1.87
2023-09-14T06:04:04.649Z,1.60
2023-09-14T06:07:07.465Z,1.33
2023-09-14T06:10:10.426Z,1.40
2023-09-14T06:13:13.308Z,2.28
2023-09-14T06:16:15.991Z,2.20
2023-09-14T06:19:19.211Z,2.17
2023-09-14T06:22:22.121Z,2.10
2023-09-14T06:25:24.874Z,2.05
2023-09-14T06:28:27.653Z,2.35
2023-09-14T06:31:30.570Z,2.00
2023-09-14T06:34:37.161Z,2.05
2023-09-14T06:37:39.852Z,1.67
2023-09-14T06:40:42.559Z,1.83
2023-09-14T06:43:46.415Z,1.87
2023-09-14T06:46:49.418Z,2.12
2023-09-14T06:49:52.123Z,2.60
2023-09-14T06:52:54.901Z,1.60
2023-09-14T06:55:57.573Z,1.95
2023-09-14T06:59:00.391Z,1.50
2023-09-14T07:02:06.990Z,2.12
2023-09-14T07:05:13.062Z,1.55
2023-09-14T07:08:15.825Z,1.40
2023-09-14T07:11:18.600Z,1.50
2023-09-14T07:14:21.527Z,1.40
2023-09-14T07:17:24.228Z,1.45
2023-09-14T07:20:26.945Z,1.40
2023-09-14T07:23:31.762Z,1.20
2023-09-14T07:26:36.281Z,1.40
2023-09-14T07:29:39.059Z,1.62
2023-09-14T07:32:42.684Z,1.60
2023-09-14T07:35:48.452Z,1.40
2023-09-14T07:38:51.216Z,1.50
2023-09-14T07:41:57.299Z,1.75
2023-09-14T07:45:00.023Z,1.20
2023-09-14T07:48:05.087Z,1.60
2023-09-14T07:51:07.881Z,1.73
2023-09-14T07:54:10.614Z,1.60
2023-09-14T07:57:13.440Z,1.65
2023-09-14T08:00:16.495Z,1.60
2023-09-14T08:03:19.483Z,1.23
2023-09-14T08:06:25.135Z,1.37
2023-09-14T08:09:29.266Z,1.47
2023-09-14T08:12:32.371Z,1.30
2023-09-14T08:15:35.391Z,1.45
2023-09-14T08:18:38.377Z,1.30
2023-09-14T08:21:41.140Z,1.67
2023-09-14T08:24:44.220Z,1.43
2023-09-14T08:27:47.185Z,1.50
2023-09-14T08:30:50.414Z,1.42
2023-09-14T08:33:53.741Z,1.75
2023-09-14T08:36:56.949Z,1.30
2023-09-14T08:40:00.202Z,1.40
2023-09-14T08:43:03.929Z,1.20
2023-09-14T08:46:08.543Z,1.20
2023-09-14T08:49:11.704Z,1.30
2023-09-14T08:52:17.200Z,1.30
2023-09-14T08:55:21.803Z,1.40
2023-09-14T08:58:25.300Z,1.35
2023-09-14T09:01:28.210Z,1.25
2023-09-14T09:04:31.548Z,1.30
2023-09-14T09:07:34.867Z,1.20
2023-09-14T09:10:41.954Z,1.50
2023-09-14T09:13:47.670Z,1.40
2023-09-14T09:16:51.085Z,1.30
2023-09-14T09:19:55.542Z,1.48
2023-09-14T09:23:01.040Z,1.30
2023-09-14T09:26:03.971Z,1.20
2023-09-14T09:29:24.193Z,1.40
2023-09-14T09:32:27.546Z,1.40
2023-09-14T09:35:32.374Z,1.60
2023-09-14T09:38:41.396Z,1.62
2023-09-14T09:41:47.110Z,1.20
2023-09-14T09:44:50.181Z,1.30
2023-09-14T09:47:54.350Z,1.30
2023-09-14T09:50:57.180Z,1.20
2023-09-14T09:54:08.214Z,1.37
2023-09-14T09:57:11.043Z,1.40
2023-09-14T10:00:14.664Z,1.37
2023-09-14T10:03:19.015Z,1.40
2023-09-14T10:06:22.419Z,1.37
2023-09-14T10:09:29.733Z,1.30
2023-09-14T10:12:32.951Z,1.30
2023-09-14T10:15:37.395Z,1.67
2023-09-14T10:18:40.830Z,1.30
2023-09-14T10:21:45.974Z,1.50
2023-09-14T10:24:51.296Z,1.40
2023-09-14T10:27:55.346Z,1.60
2023-09-14T10:31:00.321Z,1.48
2023-09-14T10:34:05.022Z,1.52
2023-09-14T10:37:10.779Z,1.75
2023-09-14T10:40:15.396Z,1.60
2023-09-14T10:43:18.368Z,1.60
2023-09-14T10:46:34.456Z,1.50
2023-09-14T10:49:38.125Z,1.83
2023-09-14T10:52:42.897Z,1.73
2023-09-14T10:55:45.727Z,2.00
2023-09-14T10:58:54.870Z,1.90
2023-09-14T11:05:19.211Z,1.58
2023-09-14T11:08:23.263Z,1.65
2023-09-14T11:11:43.176Z,1.85
2023-09-14T11:15:12.443Z,1.50
2023-09-14T11:18:19.016Z,1.70
2023-09-14T11:21:52.186Z,1.70
2023-09-14T11:24:56.460Z,1.73
2023-09-14T11:28:00.578Z,1.45
2023-09-14T11:31:03.796Z,1.50
2023-09-14T11:34:19.584Z,1.90
2023-09-14T11:37:24.876Z,1.60
2023-09-14T11:40:35.701Z,1.60
2023-09-14T11:44:33.087Z,1.70
2023-09-14T11:47:34.323Z,1.60
2023-09-14T11:50:42.945Z,1.60
2023-09-14T11:53:46.395Z,1.60
2023-09-14T11:56:50.457Z,1.75
2023-09-14T11:59:53.598Z,1.70
2023-09-14T12:02:56.313Z,1.70
2023-09-14T12:06:01.389Z,1.80
2023-09-14T12:09:06.930Z,1.50
2023-09-14T12:12:26.688Z,1.80
2023-09-14T12:15:31.456Z,1.70
2023-09-14T12:18:41.880Z,1.90
2023-09-14T12:21:45.080Z,1.90
2023-09-14T12:24:52.183Z,2.00
2023-09-14T12:27:55.351Z,2.00
2023-09-14T12:30:58.330Z,2.30
2023-09-14T12:34:01.620Z,2.40
2023-09-14T12:37:04.994Z,2.33
2023-09-14T12:40:11.764Z,2.47
2023-09-14T12:43:17.817Z,2.62
2023-09-14T12:46:22.482Z,2.50
2023-09-14T12:49:25.338Z,2.50
2023-09-14T12:52:28.964Z,2.67
2023-09-14T12:55:31.719Z,2.60
2023-09-14T12:58:34.932Z,2.90
2023-09-14T13:01:40.775Z,2.55
2023-09-14T13:04:44.183Z,2.80
2023-09-14T13:07:52.539Z,2.87
2023-09-14T13:10:57.803Z,2.85
2023-09-14T13:14:00.759Z,2.72
2023-09-14T13:17:03.596Z,2.67
2023-09-14T13:20:10.999Z,3.00
2023-09-14T13:23:13.922Z,2.40
2023-09-14T13:26:16.850Z,2.20
2023-09-14T13:29:22.657Z,2.60
2023-09-14T13:32:25.432Z,2.90
2023-09-14T13:35:30.165Z,2.60
2023-09-14T13:38:32.970Z,2.50
2023-09-14T13:41:36.135Z,2.60
2023-09-14T13:44:39.263Z,2.75
2023-09-14T13:47:43.260Z,2.75
2023-09-14T13:50:46.334Z,2.80
2023-09-14T13:53:49.198Z,2.70
2023-09-14T13:56:51.938Z,2.60
2023-09-14T13:59:54.731Z,3.20
2023-09-14T14:03:10.477Z,3.20
2023-09-14T14:06:13.608Z,2.90
2023-09-14T14:09:18.841Z,2.95
2023-09-14T14:12:21.707Z,3.00
2023-09-14T14:15:25.472Z,3.20
2023-09-14T14:18:28.927Z,2.70
2023-09-14T14:21:31.742Z,3.00
2023-09-14T14:24:34.641Z,3.05
2023-09-14T14:27:43.079Z,2.95
2023-09-14T14:30:45.900Z,3.08
2023-09-14T14:33:48.660Z,2.90
2023-09-14T14:36:51.547Z,2.70
2023-09-14T14:39:54.329Z,2.50
2023-09-14T14:42:57.149Z,2.87
2023-09-14T14:46:01.603Z,2.90
2023-09-14T14:49:04.827Z,2.70
2023-09-14T14:52:07.639Z,2.63
2023-09-14T14:55:10.391Z,2.45
2023-09-14T14:58:13.171Z,2.50
2023-09-14T15:01:17.042Z,2.40
2023-09-14T15:04:19.959Z,2.45
2023-09-14T15:07:22.685Z,2.60
2023-09-14T15:10:25.402Z,2.58
2023-09-14T15:13:31.294Z,2.60
2023-09-14T15:16:34.446Z,2.70
2023-09-14T15:19:37.380Z,2.30
2023-09-14T15:22:40.078Z,2.40
2023-09-14T15:25:42.885Z,2.60
2023-09-14T15:28:50.592Z,2.70
2023-09-14T15:31:53.405Z,2.65
2023-09-14T15:34:56.258Z,2.75
2023-09-14T15:37:59.126Z,2.37
2023-09-14T15:41:01.827Z,2.20
2023-09-14T15:44:05.850Z,2.40
2023-09-14T15:47:08.985Z,2.20
2023-09-14T15:50:11.713Z,2.40
2023-09-14T15:53:14.480Z,2.30
2023-09-14T15:56:17.744Z,2.15
2023-09-14T15:59:20.941Z,2.03
2023-09-14T16:02:23.768Z,2.10
2023-09-14T16:05:26.526Z,1.70
2023-09-14T16:08:29.750Z,2.10
2023-09-14T16:11:32.790Z,2.00
2023-09-14T16:14:35.600Z,2.00
2023-09-14T16:17:38.573Z,1.87
2023-09-14T16:20:43.014Z,1.98
2023-09-14T16:23:45.711Z,1.73
2023-09-14T16:26:51.327Z,1.70
2023-09-14T16:29:54.108Z,1.80
2023-09-14T16:32:57.960Z,1.67
2023-09-14T16:36:00.719Z,1.60
2023-09-14T16:39:08.162Z,1.77
2023-09-14T16:42:10.916Z,1.70
2023-09-14T16:45:13.902Z,2.00
2023-09-14T16:48:16.649Z,1.77
2023-09-14T16:51:19.657Z,1.80
2023-09-14T16:54:24.050Z,1.60
2023-09-14T16:57:26.848Z,1.80
2023-09-14T17:00:29.904Z,1.80
2023-09-14T17:03:32.677Z,1.60
2023-09-14T17:06:35.753Z,1.70
2023-09-14T17:09:38.518Z,1.70
2023-09-14T17:12:41.600Z,1.60
2023-09-14T17:15:44.417Z,1.50
2023-09-14T17:18:48.562Z,1.52
2023-09-14T17:21:51.737Z,1.40
2023-09-14T17:24:54.671Z,2.00
2023-09-14T17:27:57.486Z,1.40
2023-09-14T17:31:00.541Z,1.50
2023-09-14T17:34:04.861Z,1.33
2023-09-14T17:37:07.669Z,1.40
2023-09-14T17:40:10.848Z,1.40
2023-09-14T17:43:16.440Z,1.40
2023-09-14T17:46:20.193Z,1.33
2023-09-14T17:49:23.176Z,1.35
2023-09-14T17:52:26.513Z,1.30
2023-09-14T17:55:30.290Z,1.30
2023-09-14T17:58:33.108Z,1.20
2023-09-14T18:01:35.934Z,1.42
2023-09-14T18:04:38.759Z,1.15
2023-09-14T18:07:42.794Z,1.10
2023-09-14T18:10:45.607Z,1.30
2023-09-14T18:13:49.162Z,1.35
2023-09-14T18:16:51.994Z,1.20
2023-09-14T18:19:54.880Z,1.40
2023-09-14T18:22:57.630Z,1.20
2023-09-14T18:26:00.774Z,1.50
2023-09-14T18:29:04.782Z,1.10
2023-09-14T18:32:07.848Z,1.15
2023-09-14T18:35:10.845Z,1.25
2023-09-14T18:38:13.746Z,1.30
2023-09-14T18:41:18.022Z,1.47
2023-09-14T18:44:21.607Z,1.00
2023-09-14T18:47:24.417Z,1.25
2023-09-14T18:50:27.694Z,1.15
2023-09-14T18:53:32.165Z,1.20
2023-09-14T18:56:35.222Z,1.10
2023-09-14T18:59:38.081Z,1.23
2023-09-14T19:02:42.400Z,1.60
2023-09-14T19:05:46.936Z,1.25
2023-09-14T19:08:52.834Z,1.10
2023-09-14T19:11:57.465Z,1.20
2023-09-14T19:15:00.958Z,1.25
2023-09-14T19:18:07.287Z,1.10
2023-09-14T19:21:10.909Z,1.10
2023-09-14T19:24:13.773Z,1.20
2023-09-14T19:27:16.630Z,1.20
2023-09-14T19:30:19.621Z,1.00
2023-09-14T19:33:22.334Z,1.12
2023-09-14T19:36:26.456Z,1.30
2023-09-14T19:39:29.180Z,1.30
2023-09-14T19:42:31.885Z,1.10
2023-09-14T19:45:39.014Z,1.20
2023-09-14T19:48:45.639Z,1.08
2023-09-14T19:51:49.074Z,1.20
2023-09-14T19:54:51.989Z,1.10
2023-09-14T19:57:54.655Z,1.00
2023-09-14T20:00:59.476Z,1.00
2023-09-14T20:04:03.188Z,1.00
2023-09-14T20:07:06.049Z,1.00
2023-09-14T20:10:09.273Z,1.05
2023-09-14T20:13:12.096Z,0.90
2023-09-14T20:16:15.196Z,0.93
2023-09-14T20:19:18.120Z,1.25
2023-09-14T20:22:20.901Z,1.10
2023-09-14T20:25:26.498Z,1.05
2023-09-14T20:28:29.192Z,0.90
2023-09-14T20:31:32.014Z,1.35
2023-09-14T20:34:35.439Z,1.10
2023-09-14T20:37:38.487Z,1.00
2023-09-14T20:40:41.322Z,1.15
2023-09-14T20:43:44.020Z,0.90
2023-09-14T20:46:46.799Z,1.12
2023-09-14T20:49:50.416Z,0.93
2023-09-14T20:52:54.838Z,1.12
2023-09-14T20:55:58.846Z,0.90
2023-09-14T20:59:01.566Z,0.90
2023-09-14T21:02:04.903Z,0.88
2023-09-14T21:05:09.558Z,0.90
2023-09-14T21:08:12.302Z,0.85
2023-09-14T21:11:15.081Z,1.00
2023-09-14T21:14:28.364Z,1.03
2023-09-14T21:17:31.108Z,0.80
2023-09-14T21:20:33.877Z,0.75
2023-09-14T21:23:37.788Z,0.80
2023-09-14T21:26:42.570Z,1.00
2023-09-14T21:29:45.634Z,0.80
2023-09-14T21:32:48.300Z,0.75
2023-09-14T21:35:55.802Z,0.88
2023-09-14T21:38:58.582Z,0.80
2023-09-14T21:42:01.300Z,0.90
2023-09-14T21:45:04.142Z,0.97
2023-09-14T21:48:07.041Z,0.80
2023-09-14T21:51:09.786Z,0.80
2023-09-14T21:54:12.547Z,0.88
2023-09-14T21:57:18.371Z,0.70
2023-09-14T22:00:25.797Z,0.80
2023-09-14T22:03:44.947Z,0.80
2023-09-14T22:06:52.763Z,0.80
2023-09-14T22:09:58.650Z,0.80
2023-09-14T22:13:01.356Z,0.70
2023-09-14T22:16:04.146Z,0.60
2023-09-14T22:19:07.000Z,0.73
2023-09-14T22:22:10.058Z,0.90
2023-09-14T22:25:12.947Z,0.88
2023-09-14T22:28:19.204Z,0.70
2023-09-14T22:31:22.035Z,1.70
2023-09-14T22:34:27.908Z,0.60
2023-09-14T22:37:39.957Z,0.95
2023-09-14T22:40:48.940Z,0.80
2023-09-14T22:43:51.640Z,0.73
2023-09-14T22:46:54.568Z,1.20
2023-09-14T22:49:57.306Z,0.77
2023-09-14T22:53:00.032Z,0.77
2023-09-14T22:56:02.911Z,0.88
2023-09-14T22:59:08.754Z,0.87
2023-09-14T23:02:11.385Z,0.70
2023-09-14T23:05:17.096Z,1.17
2023-09-14T23:08:21.946Z,0.80
2023-09-14T23:11:41.487Z,1.50
2023-09-14T23:14:44.160Z,0.88
2023-09-14T23:17:47.097Z,1.13
2023-09-14T23:20:50.214Z,0.70
2023-09-14T23:23:52.918Z,0.70
2023-09-14T23:26:56.339Z,0.60
2023-09-14T23:29:59.501Z,0.70
2023-09-14T23:33:03.671Z,0.77
2023-09-14T23:36:12.790Z,0.70
2023-09-14T23:39:15.907Z,0.60
2023-09-14T23:42:18.705Z,0.60
2023-09-14T23:45:25.731Z,0.60
2023-09-14T23:48:28.772Z,0.67
2023-09-14T23:51:31.611Z,0.80
2023-09-14T23:54:37.437Z,0.60
2023-09-14T23:57:40.844Z,0.70
